Time;durP1;ratioP1;P1;durP2;ratioP2;P2;SDS_P1;SDS_P2;PMS_P1;PMS_P2;Temp;Humidity;BMP_temperature;BMP_pressure;BME280_temperature;BME280_humidity;BME280_pressure;Samples;Min_cycle;Max_cycle;Signal;HPM_P1;HPM_P2
2021/07/03 00:00:43;;;;;;;1.60;1.50;;;25.20;49.80;;;28.93;33.66;101368.34;5133905;28;20043;-52
2021/07/03 00:03:09;;;;;;;1.70;1.60;;;25.20;49.80;;;28.91;33.68;101369.47;5133682;28;20051;-52
2021/07/03 00:05:35;;;;;;;1.70;1.60;;;25.20;49.80;;;28.92;33.60;101373.84;5133775;28;20047;-54
2021/07/03 00:08:01;;;;;;;1.70;1.60;;;25.20;49.80;;;28.91;33.57;101373.03;5134357;28;20047;-48
2021/07/03 00:10:26;;;;;;;1.70;1.60;;;25.20;49.90;;;28.90;33.64;101378.53;5133893;28;20163;-51
2021/07/03 00:12:52;;;;;;;1.55;1.45;;;25.20;49.90;;;28.89;33.70;101371.47;5133602;28;20478;-51
2021/07/03 00:15:23;;;;;;;1.90;1.70;;;25.20;49.90;;;28.90;33.86;101379.41;5133961;28;20497;-50
2021/07/03 00:17:52;;;;;;;1.55;1.45;;;25.10;49.90;;;28.86;33.84;101364.50;5133775;28;20050;-50
2021/07/03 00:20:18;;;;;;;1.40;1.30;;;25.20;49.90;;;28.88;33.86;101369.75;5115260;28;20051;-47
2021/07/03 00:22:45;;;;;;;1.55;1.45;;;25.10;49.90;;;28.86;34.09;101363.66;5115405;28;20047;-47
2021/07/03 00:25:12;;;;;;;1.83;1.73;;;25.10;49.90;;;28.85;33.94;101370.84;5133681;28;20367;-51
2021/07/03 00:27:39;;;;;;;1.40;1.30;;;25.10;50.00;;;28.83;33.85;101370.16;5133400;28;20483;-51
2021/07/03 00:30:08;;;;;;;1.55;1.45;;;25.10;50.00;;;28.82;33.70;101371.16;5133820;28;20134;-46
2021/07/03 00:32:35;;;;;;;1.67;1.58;;;25.10;50.00;;;28.82;33.76;101371.16;5133375;28;20055;-48
2021/07/03 00:35:04;;;;;;;2.75;1.83;;;25.10;50.00;;;28.82;34.08;101368.47;5115031;28;20486;-54
2021/07/03 00:37:30;;;;;;;1.70;1.60;;;25.10;50.00;;;28.78;33.82;101367.00;5133343;28;20050;-50
2021/07/03 00:39:56;;;;;;;1.50;1.40;;;25.10;50.10;;;28.78;34.05;101367.84;5115100;28;20054;-47
2021/07/03 00:42:22;;;;;;;1.58;1.48;;;25.00;50.00;;;28.76;33.89;101361.75;5133512;28;20498;-51
2021/07/03 00:44:48;;;;;;;2.10;1.90;;;25.00;50.00;;;28.77;33.92;101357.25;5117020;28;20162;-51
2021/07/03 00:47:14;;;;;;;1.60;1.50;;;25.00;50.00;;;28.78;34.18;101367.00;5117085;28;20047;-53
2021/07/03 00:49:43;;;;;;;1.42;1.33;;;25.00;50.10;;;28.77;33.92;101368.00;5116559;28;20196;-52
2021/07/03 00:52:10;;;;;;;1.60;1.50;;;25.00;50.10;;;28.71;33.95;101361.31;5136684;28;20375;-53
2021/07/03 00:54:39;;;;;;;1.30;1.20;;;25.00;50.10;;;28.74;34.10;101368.28;5117364;28;20146;-54
2021/07/03 00:57:08;;;;;;;1.73;1.63;;;25.00;50.10;;;28.71;34.12;101366.69;5137001;28;20391;-49
2021/07/03 00:59:40;;;;;;;1.65;1.55;;;25.00;50.10;;;28.72;34.08;101365.72;5117013;28;20054;-50
2021/07/03 01:02:11;;;;;;;1.55;1.45;;;25.00;50.10;;;28.70;34.11;101377.59;5117468;28;20055;-48
2021/07/03 01:04:38;;;;;;;1.48;1.38;;;25.00;50.20;;;28.71;34.24;101376.63;5100127;28;20040;-51
2021/07/03 01:07:07;;;;;;;1.73;1.63;;;24.90;50.10;;;28.67;34.02;101370.66;5133318;28;20487;-54
2021/07/03 01:09:34;;;;;;;1.63;1.52;;;25.00;50.20;;;28.69;34.08;101378.59;5118150;28;20068;-52
2021/07/03 01:12:04;;;;;;;1.60;1.50;;;24.90;50.20;;;28.68;34.48;101372.34;5137105;28;20482;-53
2021/07/03 01:14:31;;;;;;;1.52;1.42;;;24.90;50.20;;;28.69;34.17;101378.59;5137108;28;20086;-52
2021/07/03 01:16:57;;;;;;;1.88;1.70;;;24.90;50.20;;;28.66;34.29;101376.16;5117086;28;20142;-55
2021/07/03 01:19:23;;;;;;;1.92;1.83;;;24.90;50.30;;;28.64;34.18;101379.00;5115161;28;20044;-49
2021/07/03 01:21:56;;;;;;;1.90;1.75;;;25.00;50.30;;;28.60;34.13;101383.78;5137024;28;20482;-53
2021/07/03 01:24:23;;;;;;;1.70;1.60;;;24.90;50.30;;;28.63;33.97;101380.84;5118037;28;20047;-55
2021/07/03 01:26:55;;;;;;;1.50;1.40;;;24.90;50.30;;;28.59;34.27;101378.53;5117850;28;20043;-51
2021/07/03 01:29:25;;;;;;;1.60;1.50;;;24.90;50.30;;;28.61;34.27;101384.63;5117753;28;20059;-51
2021/07/03 01:31:56;;;;;;;1.70;1.60;;;24.90;50.30;;;28.60;34.21;101382.91;5118479;28;20043;-53
2021/07/03 01:34:25;;;;;;;1.60;1.50;;;24.90;50.30;;;28.57;34.19;101372.44;5136522;28;20517;-52
2021/07/03 01:36:52;;;;;;;1.60;1.50;;;24.90;50.30;;;28.57;34.43;101370.59;5111569;28;20492;-51
2021/07/03 01:39:18;;;;;;;1.60;1.50;;;24.90;50.40;;;28.56;34.26;101379.63;5116628;28;20059;-51
2021/07/03 01:41:44;;;;;;;1.70;1.60;;;24.90;50.40;;;28.57;34.22;101380.50;5136109;28;20096;-51
2021/07/03 01:44:17;;;;;;;1.70;1.60;;;24.80;50.40;;;28.52;34.42;101369.25;5136020;28;20100;-52
2021/07/03 01:46:43;;;;;;;1.70;1.60;;;24.80;50.40;;;28.55;34.06;101377.94;5117678;28;20096;-54
2021/07/03 01:49:09;;;;;;;1.98;1.77;;;24.80;50.40;;;28.54;34.36;101372.66;5134711;28;20035;-50
2021/07/03 01:51:44;;;;;;;1.40;1.30;;;24.80;50.40;;;28.52;34.16;101371.94;5117702;28;20043;-52
2021/07/03 01:54:10;;;;;;;1.73;1.63;;;24.80;50.40;;;28.51;34.54;101371.09;5115539;27;20040;-53
2021/07/03 01:56:42;;;;;;;1.45;1.35;;;24.80;50.50;;;28.46;34.19;101363.41;5116378;28;20043;-52
2021/07/03 01:59:13;;;;;;;1.60;1.50;;;24.80;50.50;;;28.51;34.27;101368.41;5135877;28;20050;-50
2021/07/03 02:01:47;;;;;;;1.50;1.40;;;24.80;50.50;;;28.51;34.62;101367.56;5117983;28;20086;-53
2021/07/03 02:04:15;;;;;;;1.63;1.50;;;24.80;50.50;;;28.48;34.40;101363.28;5099087;28;20044;-52
2021/07/03 02:06:44;;;;;;;1.60;1.50;;;24.80;50.50;;;28.45;34.61;101361.72;5136181;28;20382;-51
2021/07/03 02:09:14;;;;;;;1.67;1.58;;;24.80;50.50;;;28.44;34.39;101356.47;5098614;28;20556;-50
2021/07/03 02:11:41;;;;;;;1.75;1.65;;;24.70;50.50;;;28.42;34.52;101359.28;5113523;28;20462;-45
2021/07/03 02:14:17;;;;;;;1.60;1.50;;;24.80;50.60;;;28.44;34.35;101360.00;5117263;28;20505;-47
2021/07/03 02:16:59;;;;;;;1.92;1.50;;;24.70;50.60;;;28.45;34.46;101359.03;5117436;28;20047;-51
2021/07/03 02:19:26;;;;;;;1.90;1.80;;;24.80;50.60;;;28.43;34.65;101360.13;5134228;28;20046;-47
2021/07/03 02:21:55;;;;;;;1.50;1.40;;;24.70;50.60;;;28.41;34.41;101348.66;5116965;28;20035;-48
2021/07/03 02:24:31;;;;;;;1.60;1.50;;;24.70;50.60;;;28.39;34.53;101348.78;5098393;28;20050;-50
2021/07/03 02:26:58;;;;;;;1.80;1.70;;;24.70;51.10;;;28.39;34.60;101351.47;5135744;28;20043;-53
2021/07/03 02:29:24;;;;;;;1.75;1.60;;;24.70;50.60;;;28.37;34.75;101349.94;5116167;28;20044;-47
2021/07/03 02:31:51;;;;;;;1.73;1.48;;;24.70;50.60;;;28.37;34.37;101349.94;5116769;28;20043;-50
2021/07/03 02:34:18;;;;;;;2.05;1.85;;;24.70;50.80;;;28.35;34.78;101346.50;5115572;28;20040;-48
2021/07/03 02:36:44;;;;;;;1.50;1.40;;;24.70;50.70;;;28.33;34.67;101341.25;5135324;28;20039;-53
2021/07/03 02:39:13;;;;;;;1.70;1.60;;;24.70;50.70;;;28.35;34.63;101343.81;5116727;28;20070;-49
2021/07/03 02:41:44;;;;;;;1.50;1.40;;;24.70;51.20;;;28.35;34.66;101343.81;5116990;28;20047;-51
2021/07/03 02:44:10;;;;;;;1.60;1.50;;;24.70;50.70;;;28.26;34.86;101338.22;5116596;28;20051;-52
2021/07/03 02:46:37;;;;;;;1.50;1.40;;;24.70;50.80;;;28.32;34.87;101352.13;5100234;28;20043;-49
2021/07/03 02:49:03;;;;;;;1.42;1.33;;;24.70;50.80;;;28.30;34.41;101346.03;5117148;28;20417;-51
2021/07/03 02:51:29;;;;;;;1.73;1.63;;;24.60;50.70;;;28.28;34.59;101343.47;5116535;28;20047;-49
2021/07/03 02:53:56;;;;;;;1.85;1.60;;;24.70;50.80;;;28.27;34.49;101347.16;5116413;28;20114;-48
2021/07/03 02:56:22;;;;;;;1.70;1.60;;;24.70;50.80;;;28.30;34.90;101343.34;5134823;28;20068;-49
2021/07/03 02:58:49;;;;;;;1.50;1.40;;;24.70;50.90;;;28.27;34.70;101356.09;5134900;28;20406;-48
2021/07/03 03:01:15;;;;;;;1.60;1.50;;;24.60;50.80;;;28.26;34.63;101348.97;5135101;28;20103;-53
2021/07/03 03:03:43;;;;;;;1.67;1.58;;;24.60;50.80;;;28.25;34.81;101343.75;5116388;28;20062;-51
2021/07/03 03:06:13;;;;;;;1.80;1.70;;;24.60;50.90;;;28.25;34.50;101351.81;5116247;28;20043;-49
2021/07/03 03:08:39;;;;;;;1.77;1.67;;;24.60;50.90;;;28.23;34.77;101351.09;5134662;28;20058;-53
2021/07/03 03:11:07;;;;;;;1.50;1.40;;;24.60;50.90;;;28.23;34.94;101359.16;5099943;28;20075;-48
2021/07/03 03:13:35;;;;;;;1.70;1.60;;;24.60;51.40;;;28.24;34.98;101355.50;5133457;28;20389;-49
2021/07/03 03:16:03;;;;;;;1.65;1.55;;;24.60;50.90;;;28.24;34.88;101350.13;5116494;28;20390;-49
2021/07/03 03:18:30;;;;;;;1.40;1.30;;;24.60;50.90;;;28.22;34.79;101350.25;5116030;28;20043;-49
2021/07/03 03:20:56;;;;;;;1.60;1.50;;;24.60;50.90;;;28.20;34.64;101346.84;5134524;28;20051;-50
2021/07/03 03:23:22;;;;;;;1.48;1.35;;;24.60;50.90;;;28.24;35.02;101350.97;5115089;28;20050;-51
2021/07/03 03:25:48;;;;;;;1.33;1.23;;;24.60;50.80;;;28.26;34.57;101348.16;5134527;28;20047;-51
2021/07/03 03:28:16;;;;;;;1.67;1.58;;;24.70;50.80;;;28.28;34.65;101341.66;5115907;28;20467;-49
2021/07/03 03:30:42;;;;;;;1.50;1.40;;;24.70;50.70;;;28.32;34.71;101349.44;5134810;28;20134;-53
2021/07/03 03:33:14;;;;;;;1.63;1.52;;;24.70;50.70;;;28.35;34.61;101350.06;5134633;28;20085;-48
2021/07/03 03:35:41;;;;;;;1.75;1.55;;;24.70;50.50;;;28.35;34.54;101352.75;5115956;28;20082;-53
2021/07/03 03:38:07;;;;;;;1.55;1.45;;;24.80;50.60;;;28.38;34.63;101347.06;5111726;28;20048;-52
2021/07/03 03:40:34;;;;;;;1.70;1.60;;;24.80;50.50;;;28.38;34.64;101339.00;5115611;28;20051;-48
2021/07/03 03:43:02;;;;;;;1.40;1.30;;;24.80;50.50;;;28.43;34.67;101347.56;5115992;28;20062;-51
2021/07/03 03:45:30;;;;;;;1.30;1.20;;;24.80;50.40;;;28.46;34.46;101357.19;5115551;28;20045;-50
2021/07/03 03:47:59;;;;;;;1.70;1.60;;;24.80;50.30;;;28.46;34.39;101352.66;5115244;28;20051;-52
2021/07/03 03:50:29;;;;;;;1.60;1.50;;;24.80;50.30;;;28.48;34.59;101357.91;5115579;28;20096;-47
2021/07/03 03:52:54;;;;;;;1.50;1.40;;;24.80;50.40;;;28.45;34.41;101353.66;5099222;28;20043;-48
2021/07/03 03:55:21;;;;;;;1.50;1.40;;;24.80;50.40;;;28.50;34.37;101365.84;5115805;28;20046;-53
2021/07/03 03:57:47;;;;;;;1.70;1.60;;;24.90;50.50;;;28.53;34.58;101366.41;5115753;28;20395;-51
2021/07/03 04:00:19;;;;;;;1.70;1.60;;;24.90;50.40;;;28.56;34.60;101362.66;5116019;28;20639;-46
2021/07/03 04:02:52;;;;;;;1.63;1.52;;;25.00;50.40;;;28.63;34.14;101367.38;5115488;28;20509;-50
2021/07/03 04:05:24;;;;;;;1.63;1.40;;;25.00;50.20;;;28.68;34.21;101363.41;5116010;28;20043;-51
2021/07/03 04:07:52;;;;;;;1.48;1.38;;;25.00;50.00;;;28.75;34.00;101361.88;5115915;28;20471;-50
2021/07/03 04:10:19;;;;;;;1.60;1.50;;;25.10;49.90;;;28.77;33.76;101354.56;5115659;28;20134;-48
2021/07/03 04:12:44;;;;;;;1.65;1.55;;;25.20;49.80;;;28.87;33.71;101362.66;5133529;28;20184;-48
2021/07/03 04:15:11;;;;;;;1.58;1.48;;;25.20;49.70;;;28.90;33.77;101362.38;5133678;28;20057;-48
2021/07/03 04:17:38;;;;;;;1.65;1.55;;;25.20;49.70;;;28.94;33.67;101364.69;5133528;27;20047;-48
2021/07/03 04:20:07;;;;;;;1.80;1.70;;;25.20;49.60;;;28.99;33.52;101362.44;5133563;28;20046;-49
2021/07/03 04:22:33;;;;;;;1.40;1.30;;;25.30;49.60;;;29.07;33.50;101360.88;5133551;28;20043;-51
2021/07/03 04:25:01;;;;;;;1.38;1.27;;;25.40;49.50;;;29.09;33.46;101373.22;5133674;28;20047;-47
2021/07/03 04:27:27;;;;;;;1.30;1.20;;;25.30;49.40;;;29.10;33.70;101377.63;5133658;28;20143;-48
2021/07/03 04:29:53;;;;;;;1.50;1.40;;;25.40;49.50;;;29.07;33.48;101367.13;5133355;28;20131;-52
2021/07/03 04:32:19;;;;;;;1.40;1.30;;;25.30;49.50;;;29.07;33.34;101364.44;5113634;28;20059;-52
2021/07/03 04:34:46;;;;;;;1.40;1.30;;;25.30;49.60;;;29.02;33.46;101361.31;5096474;28;20044;-51
2021/07/03 04:37:12;;;;;;;1.48;1.38;;;25.20;49.70;;;29.01;33.82;101368.53;5133110;28;20091;-52
2021/07/03 04:39:38;;;;;;;1.67;1.58;;;25.20;49.80;;;28.98;33.62;101370.63;5133313;28;20055;-54
2021/07/03 04:42:04;;;;;;;1.40;1.30;;;25.20;49.90;;;28.93;33.66;101370.19;5133278;28;20055;-50
2021/07/03 04:44:30;;;;;;;1.50;1.40;;;25.20;49.90;;;28.94;33.68;101363.84;5133333;28;20043;-49
2021/07/03 04:46:56;;;;;;;1.38;1.27;;;25.10;49.90;;;28.92;33.88;101369.34;5133288;28;20054;-50
2021/07/03 04:49:22;;;;;;;1.50;1.40;;;25.10;50.40;;;28.90;33.63;101368.63;5133948;28;20047;-48
2021/07/03 04:51:50;;;;;;;1.65;1.55;;;25.10;49.90;;;28.89;33.94;101372.31;5115021;28;20051;-48
2021/07/03 04:54:16;;;;;;;1.83;1.67;;;25.10;50.00;;;28.86;33.84;101371.72;5133191;28;20380;-50
2021/07/03 04:56:42;;;;;;;1.40;1.30;;;25.10;50.00;;;28.89;34.00;101379.53;5133382;28;20380;-52
2021/07/03 04:59:08;;;;;;;1.45;1.35;;;25.10;50.00;;;28.84;34.10;101358.41;5133175;28;20055;-51
2021/07/03 05:01:33;;;;;;;1.60;1.48;;;25.10;50.00;;;28.85;33.72;101362.78;5133475;28;20043;-54
2021/07/03 05:03:59;;;;;;;1.50;1.40;;;25.10;49.90;;;28.89;33.80;101363.38;5132965;28;20455;-49
2021/07/03 05:06:25;;;;;;;1.42;1.33;;;25.10;49.90;;;28.88;33.97;101354.44;5133446;28;20047;-54
2021/07/03 05:08:51;;;;;;;1.40;1.30;;;25.20;50.00;;;28.91;33.62;101364.94;5133114;28;20039;-49
2021/07/03 05:11:17;;;;;;;1.50;1.40;;;25.20;49.90;;;28.92;33.98;101365.78;5132934;28;20058;-54
2021/07/03 05:13:42;;;;;;;1.15;1.10;;;25.10;49.80;;;28.91;33.87;101366.78;5132870;28;20051;-49
2021/07/03 05:16:08;;;;;;;1.45;1.35;;;25.20;49.90;;;28.93;33.65;101371.03;5115170;28;20043;-51
2021/07/03 05:18:34;;;;;;;1.73;1.63;;;25.20;49.90;;;-147.20;100.00;58430.41;5132788;28;20043;-50
2021/07/03 05:21:00;;;;;;;1.50;1.40;;;25.30;49.90;;;-147.20;100.00;58430.41;5132791;28;20096;-46
2021/07/03 05:23:26;;;;;;;1.23;1.23;;;25.40;49.70;;;29.10;33.56;101371.38;5132896;28;20071;-48
2021/07/03 05:25:54;;;;;;;1.38;1.27;;;25.40;49.40;;;29.13;33.50;101363.88;5133483;28;20047;-51
2021/07/03 05:28:20;;;;;;;1.58;1.48;;;25.40;49.40;;;29.15;33.36;101371.81;5132729;28;20118;-50
2021/07/03 05:30:48;;;;;;;1.30;1.20;;;25.40;49.40;;;29.18;33.31;101361.66;5134555;27;20051;-48
2021/07/03 05:33:14;;;;;;;1.40;1.30;;;25.50;49.50;;;29.26;33.37;101365.53;5136298;28;20134;-47
2021/07/03 05:35:40;;;;;;;1.60;1.50;;;25.50;49.30;;;29.27;33.22;101368.09;5136179;28;20043;-47
2021/07/03 05:38:06;;;;;;;1.30;1.20;;;25.50;49.20;;;29.34;33.38;101368.38;5117815;28;20128;-48
2021/07/03 05:40:31;;;;;;;1.38;1.27;;;25.60;49.20;;;29.43;33.11;101372.06;5136017;28;20050;-48
2021/07/03 05:42:57;;;;;;;1.30;1.20;;;25.70;49.00;;;29.45;32.91;101367.41;5136198;28;20047;-45
2021/07/03 05:45:23;;;;;;;1.27;1.20;;;25.60;48.70;;;29.47;33.06;101381.56;5135674;28;20087;-45
2021/07/03 05:47:52;;;;;;;1.55;1.45;;;25.60;48.80;;;29.45;32.87;101373.63;5134753;28;20478;-44
2021/07/03 05:50:23;;;;;;;1.50;1.40;;;25.60;48.90;;;29.47;33.04;101376.19;5136047;28;20051;-48
2021/07/03 05:52:50;;;;;;;1.50;1.40;;;25.70;49.00;;;29.51;32.95;101378.47;5135837;28;20047;-45
2021/07/03 05:55:17;;;;;;;1.48;1.38;;;25.70;49.00;;;29.54;32.93;101383.59;5117358;28;20050;-45
2021/07/03 05:57:43;;;;;;;1.42;1.33;;;25.70;48.80;;;29.53;32.83;101376.47;5136253;28;20050;-51
2021/07/03 06:00:11;;;;;;;1.40;1.30;;;25.70;48.80;;;29.59;32.80;101375.09;5135816;28;20039;-48
2021/07/03 06:02:43;;;;;;;1.42;1.33;;;25.80;48.80;;;29.64;32.72;101369.28;5135927;28;20047;-47
2021/07/03 06:05:10;;;;;;;1.77;1.40;;;25.80;48.70;;;29.65;32.59;101371.81;5135788;28;20047;-46
2021/07/03 06:07:35;;;;;;;1.40;1.30;;;25.80;48.60;;;29.66;32.64;101367.28;5135681;28;20043;-52
2021/07/03 06:10:04;;;;;;;1.50;1.40;;;25.80;48.70;;;29.68;32.84;101368.00;5135728;28;20115;-48
2021/07/03 06:12:31;;;;;;;1.23;1.20;;;25.80;48.60;;;29.68;32.73;101370.69;5135880;28;20387;-52
2021/07/03 06:14:57;;;;;;;1.20;1.10;;;25.80;48.50;;;29.70;32.67;101374.09;5135910;28;20066;-50
2021/07/03 06:17:23;;;;;;;1.63;1.52;;;25.80;48.60;;;29.70;32.72;101371.41;5135665;28;20047;-50
2021/07/03 06:19:48;;;;;;;1.30;1.20;;;25.80;48.50;;;29.71;32.54;101373.13;5135130;28;20047;-48
2021/07/03 06:22:14;;;;;;;1.35;1.25;;;25.80;48.60;;;29.67;32.38;101367.16;5135464;28;20043;-53
2021/07/03 06:24:41;;;;;;;1.15;1.13;;;25.80;48.50;;;29.69;32.43;101358.94;5135276;28;20047;-52
2021/07/03 06:27:07;;;;;;;1.40;1.30;;;25.80;48.50;;;29.72;32.49;101367.59;5135133;28;20483;-49
2021/07/03 06:29:34;;;;;;;1.40;1.30;;;25.80;48.50;;;29.73;32.65;101363.03;5135477;28;20423;-51
2021/07/03 06:32:01;;;;;;;1.40;1.30;;;25.90;48.50;;;29.71;32.42;101370.41;5135286;28;20047;-46
2021/07/03 06:34:27;;;;;;;1.35;1.25;;;25.80;48.50;;;29.74;32.58;101365.59;5134975;28;20077;-46
2021/07/03 06:36:53;;;;;;;1.80;1.20;;;25.80;48.50;;;29.72;32.63;101367.59;5135170;28;20047;-49
2021/07/03 06:39:19;;;;;;;1.38;1.27;;;25.90;48.50;;;29.76;32.29;101360.06;5135464;28;20060;-47
2021/07/03 06:41:45;;;;;;;1.50;1.40;;;25.90;48.50;;;29.75;32.50;101364.63;5135370;27;20401;-50
2021/07/03 06:44:11;;;;;;;1.15;1.05;;;25.90;48.50;;;29.73;32.47;101371.13;5135198;28;20134;-48
2021/07/03 06:46:37;;;;;;;1.40;1.30;;;25.90;48.50;;;29.74;32.63;101368.28;5116625;28;20055;-53
2021/07/03 06:49:03;;;;;;;1.33;1.23;;;25.90;48.50;;;29.75;32.45;101371.81;5135133;28;20486;-51
2021/07/03 06:51:28;;;;;;;1.00;1.00;;;25.90;48.40;;;29.76;32.55;101365.44;5135251;28;20470;-49
2021/07/03 06:53:56;;;;;;;1.35;1.25;;;25.90;48.40;;;29.78;32.59;101370.75;5134972;28;20050;-53
2021/07/03 06:56:22;;;;;;;1.50;1.40;;;25.90;48.40;;;29.77;32.35;101361.81;5134902;28;20054;-50
2021/07/03 06:58:48;;;;;;;1.30;1.20;;;25.90;48.40;;;29.75;32.53;101370.00;5135202;28;20055;-47
2021/07/03 07:01:14;;;;;;;1.40;1.30;;;25.90;48.40;;;29.74;32.64;101365.59;5134758;28;20475;-51
2021/07/03 07:03:40;;;;;;;1.15;1.13;;;25.90;48.40;;;29.71;32.66;101363.16;5134835;28;20380;-53
2021/07/03 07:06:05;;;;;;;1.08;1.08;;;25.80;48.40;;;29.71;32.45;101362.34;5135145;28;20534;-52
2021/07/03 07:08:31;;;;;;;1.40;1.30;;;25.80;48.40;;;29.67;32.57;101366.28;5135006;28;20045;-49
2021/07/03 07:10:57;;;;;;;1.30;1.20;;;25.80;48.50;;;29.66;32.63;101370.00;5134592;28;20059;-53
2021/07/03 07:13:23;;;;;;;1.33;1.23;;;25.80;48.50;;;29.65;32.70;101358.34;5134586;28;20514;-48
2021/07/03 07:15:48;;;;;;;1.50;1.40;;;25.80;48.50;;;29.60;32.51;101355.22;5134671;28;20573;-52
2021/07/03 07:18:15;;;;;;;1.60;1.50;;;25.80;48.50;;;29.63;32.46;101362.19;5134432;28;20035;-49
2021/07/03 07:20:40;;;;;;;1.40;1.30;;;25.80;48.40;;;29.68;32.65;101366.16;5134751;28;20047;-52
2021/07/03 07:23:06;;;;;;;1.40;1.30;;;25.80;48.40;;;-147.20;100.00;58430.41;5134635;28;20134;-47
2021/07/03 07:25:32;;;;;;;1.38;1.27;;;25.90;48.40;;;-147.20;100.00;58430.41;5134517;28;20067;-48
2021/07/03 07:27:58;;;;;;;1.40;1.30;;;26.00;48.50;;;-147.20;100.00;58430.41;5133924;28;20046;-53
2021/07/03 07:30:23;;;;;;;1.20;1.10;;;26.10;48.10;;;-147.20;100.00;58430.41;5134521;28;20080;-49
2021/07/03 07:32:50;;;;;;;1.20;1.10;;;26.20;48.00;;;-147.20;100.00;58430.41;5134183;28;20047;-48
2021/07/03 07:35:16;;;;;;;1.20;1.10;;;26.30;47.80;;;30.18;32.01;101365.19;5134635;28;20039;-47
2021/07/03 07:37:42;;;;;;;1.70;1.40;;;26.30;47.50;;;30.18;31.81;101357.09;5134170;28;20095;-50
2021/07/03 07:40:10;;;;;;;1.20;1.10;;;26.30;47.30;;;30.17;31.81;101365.31;5134554;28;20047;-46
2021/07/03 07:42:38;;;;;;;1.05;1.02;;;26.30;47.40;;;30.13;32.02;101362.06;5134140;28;20067;-47
2021/07/03 07:45:06;;;;;;;1.15;1.05;;;26.20;47.50;;;30.06;31.98;101363.63;5134518;28;20058;-51
2021/07/03 07:47:33;;;;;;;1.27;1.17;;;26.20;47.70;;;30.03;31.99;101370.16;5134356;28;20051;-47
2021/07/03 07:50:01;;;;;;;1.55;1.20;;;26.10;47.70;;;30.01;31.86;101374.84;5114659;28;20046;-51
2021/07/03 07:52:27;;;;;;;0.93;0.93;;;26.10;47.80;;;29.96;32.17;101366.34;5134083;27;20039;-49
2021/07/03 07:54:53;;;;;;;1.25;1.15;;;26.10;47.90;;;29.99;32.20;101368.75;5133896;28;20043;-49
2021/07/03 07:57:21;;;;;;;1.33;1.23;;;26.10;47.90;;;29.97;32.13;101367.19;5133605;28;20051;-50
2021/07/03 07:59:48;;;;;;;1.25;1.20;;;26.10;47.90;;;30.01;32.14;101366.75;5127105;28;20054;-53
2021/07/03 08:02:14;;;;;;;1.20;1.10;;;26.20;47.90;;;30.04;32.18;101366.47;5112248;28;20534;-54
2021/07/03 08:04:40;;;;;;;1.33;1.23;;;26.20;47.70;;;30.07;31.93;101359.94;5094117;28;20132;-48
2021/07/03 08:07:06;;;;;;;1.40;1.30;;;26.20;47.70;;;30.07;31.94;101359.94;5112976;28;20134;-51
2021/07/03 08:09:32;;;;;;;1.10;1.05;;;26.30;47.70;;;30.11;31.99;101353.28;5113296;28;20083;-50
2021/07/03 08:11:58;;;;;;;1.38;1.27;;;26.30;47.60;;;-147.20;100.00;58430.41;5113240;28;20384;-49
2021/07/03 08:14:40;;;;;;;1.00;1.00;;;26.30;47.50;;;-147.20;100.00;58430.41;5112517;28;20515;-52
2021/07/03 08:17:06;;;;;;;1.52;1.35;;;26.40;47.40;;;-147.20;100.00;58430.41;5091006;28;20139;-53
2021/07/03 08:19:33;;;;;;;1.38;1.27;;;26.40;47.30;;;-147.20;100.00;58430.41;5113096;28;20047;-49
2021/07/03 08:21:59;;;;;;;1.38;1.27;;;26.40;47.30;;;-147.20;100.00;58430.41;5112964;28;20048;-51
2021/07/03 08:24:25;;;;;;;1.00;1.00;;;26.40;47.30;;;-147.20;100.00;58430.41;5113481;28;20429;-51
2021/07/03 08:26:51;;;;;;;1.30;1.20;;;26.40;47.30;;;-147.20;100.00;58430.41;5113007;28;20043;-50
2021/07/03 08:29:17;;;;;;;1.85;1.30;;;26.40;47.30;;;-147.20;100.00;58430.41;5112999;28;20487;-51
2021/07/03 08:31:42;;;;;;;1.25;1.20;;;26.40;47.30;;;-147.20;100.00;58430.41;5112992;28;20491;-52
2021/07/03 08:34:08;;;;;;;1.02;1.02;;;26.30;47.30;;;-147.20;100.00;58430.41;5112986;28;20044;-52
2021/07/03 08:36:34;;;;;;;1.02;1.00;;;26.30;47.30;;;-147.20;100.00;58430.41;5112920;28;20560;-51
2021/07/03 08:39:00;;;;;;;1.30;1.23;;;26.30;47.40;;;-147.20;100.00;58430.41;5113058;28;20491;-52
2021/07/03 08:41:27;;;;;;;1.02;1.02;;;26.40;47.40;;;-147.20;100.00;58430.41;5113176;28;20518;-54
2021/07/03 08:43:52;;;;;;;1.30;1.20;;;26.40;47.30;;;-147.20;100.00;58430.41;5078102;28;20093;-48
2021/07/03 08:46:19;;;;;;;1.08;1.02;;;26.50;47.30;;;-147.20;100.00;58430.41;5112800;28;20441;-52
2021/07/03 08:48:53;;;;;;;1.40;1.30;;;26.50;47.10;;;-147.20;100.00;58430.41;5113162;28;20069;-48
2021/07/03 08:51:21;;;;;;;1.30;1.20;;;26.50;47.10;;;-147.20;100.00;58430.41;5111519;28;20484;-52
2021/07/03 08:53:47;;;;;;;1.20;1.10;;;26.50;47.00;;;-147.20;100.00;58430.41;5093237;28;20127;-45
2021/07/03 08:56:13;;;;;;;1.30;1.20;;;26.50;47.00;;;-147.20;100.00;58430.41;5112703;28;20143;-51
2021/07/03 08:58:39;;;;;;;1.17;1.08;;;26.50;47.00;;;-147.20;100.00;58430.41;5112609;28;20498;-48
2021/07/03 09:01:05;;;;;;;1.40;1.30;;;26.50;47.00;;;-147.20;100.00;58430.41;5112944;28;20521;-51
2021/07/03 09:03:31;;;;;;;0.90;0.90;;;26.50;47.00;;;-147.20;100.00;58430.41;5112691;28;20040;-52
2021/07/03 09:06:00;;;;;;;1.35;1.25;;;26.50;47.00;;;-147.20;100.00;58430.41;5116491;28;20073;-52
2021/07/03 09:08:28;;;;;;;1.20;1.10;;;26.50;46.90;;;-147.20;100.00;58430.41;5116059;28;20426;-48
2021/07/03 09:11:04;;;;;;;1.05;1.05;;;26.60;46.90;;;-147.20;100.00;58430.41;5097995;28;20055;-52
2021/07/03 09:13:31;;;;;;;1.02;1.00;;;26.60;46.80;;;-147.20;100.00;58430.41;5116063;28;20126;-51
2021/07/03 09:15:57;;;;;;;1.25;1.15;;;26.60;46.80;;;-147.20;100.00;58430.41;5116021;28;20043;-50
2021/07/03 09:18:27;;;;;;;1.27;1.17;;;26.60;46.80;;;-147.20;100.00;58430.41;5115827;28;20472;-50
2021/07/03 09:20:55;;;;;;;1.30;1.20;;;26.60;46.80;;;-147.20;100.00;58430.41;5115937;28;20487;-53
2021/07/03 09:23:30;;;;;;;1.15;1.05;;;26.70;46.90;;;-147.20;100.00;58430.41;5116301;28;20463;-47
2021/07/03 09:26:06;;;;;;;1.42;1.33;;;26.70;46.70;;;-147.20;100.00;58430.41;5115841;28;20054;-48
2021/07/03 09:28:41;;;;;;;1.33;1.23;;;26.70;46.70;;;-147.20;100.00;58430.41;5115908;28;20058;-48
2021/07/03 09:31:10;;;;;;;1.00;1.00;;;26.80;46.70;;;-147.20;100.00;58430.41;5116069;28;20040;-54
2021/07/03 09:33:45;;;;;;;1.20;1.10;;;26.80;46.60;;;-147.20;100.00;58430.41;5080722;28;20165;-52
2021/07/03 09:36:13;;;;;;;1.10;1.10;;;26.80;46.60;;;-147.20;100.00;58430.41;5116075;28;20671;-49
2021/07/03 09:38:47;;;;;;;1.23;1.10;;;26.80;46.60;;;-147.20;100.00;58430.41;5116024;28;20074;-51
2021/07/03 09:41:28;;;;;;;1.30;1.20;;;26.80;46.60;;;-147.20;100.00;58430.41;5115685;28;20050;-49
2021/07/03 09:43:56;;;;;;;0.90;0.90;;;26.80;46.50;;;-147.20;100.00;58430.41;5097634;28;20043;-51
2021/07/03 09:46:32;;;;;;;1.00;1.00;;;26.80;46.50;;;-147.20;100.00;58430.41;5115461;28;20047;-50
2021/07/03 09:49:05;;;;;;;1.02;1.02;;;26.80;46.50;;;-147.20;100.00;58430.41;5115675;28;20395;-46
2021/07/03 09:51:51;;;;;;;1.30;1.20;;;26.90;46.50;;;-147.20;100.00;58430.41;5097343;28;20517;-47
2021/07/03 09:54:21;;;;;;;1.10;1.00;;;26.90;46.40;;;-147.20;100.00;58430.41;5115650;28;20048;-50
2021/07/03 09:56:48;;;;;;;1.13;1.02;;;26.90;46.40;;;-147.20;100.00;58430.41;5115389;28;20089;-50
2021/07/03 09:59:14;;;;;;;1.02;1.00;;;26.90;46.40;;;-147.20;100.00;58430.41;5115342;28;20066;-47
2021/07/03 10:01:43;;;;;;;1.15;1.10;;;26.90;46.40;;;-147.20;100.00;58430.41;5115368;28;20064;-51
2021/07/03 10:04:11;;;;;;;1.00;1.00;;;26.90;46.30;;;-147.20;100.00;58430.41;5115506;28;20046;-47
2021/07/03 10:06:42;;;;;;;1.27;1.17;;;26.90;46.30;;;-147.20;100.00;58430.41;5115619;28;20054;-45
2021/07/03 10:09:43;;;;;;;0.95;0.95;;;26.90;46.30;;;-147.20;100.00;58430.41;5115186;28;20485;-50
2021/07/03 10:12:14;;;;;;;0.90;0.90;;;26.90;46.30;;;-147.20;100.00;58430.41;5114281;28;20044;-47